createdAt,value
2022-10-31T00:02:13.433Z,27.67
2022-10-31T00:07:15.444Z,21.15
2022-10-31T00:12:17.445Z,23.13
2022-10-31T00:17:19.476Z,23.60
2022-10-31T00:22:21.464Z,18.33
2022-10-31T00:27:23.491Z,22.90
2022-10-31T00:32:25.470Z,26.73
2022-10-31T00:37:27.833Z,23.80
2022-10-31T00:42:29.887Z,19.77
2022-10-31T00:47:33.818Z,21.88
2022-10-31T00:52:36.002Z,19.73
2022-10-31T00:57:38.340Z,23.58
2022-10-31T01:02:41.302Z,19.85
2022-10-31T01:07:43.608Z,24.98
2022-10-31T01:12:48.075Z,20.73
2022-10-31T01:17:50.668Z,20.98
2022-10-31T01:22:52.668Z,18.95
2022-10-31T01:27:54.657Z,21.42
2022-10-31T01:32:58.099Z,24.85
2022-10-31T01:38:00.383Z,24.83
2022-10-31T01:43:02.695Z,24.85
2022-10-31T01:48:05.249Z,19.65
2022-10-31T01:53:09.129Z,23.20
2022-10-31T01:58:21.114Z,21.10
2022-10-31T02:03:24.819Z,22.65
2022-10-31T02:08:32.190Z,24.48
2022-10-31T02:13:34.813Z,23.88
2022-10-31T02:18:37.002Z,19.63
2022-10-31T02:23:59.969Z,24.08
2022-10-31T02:29:28.295Z,22.10
2022-10-31T02:35:08.141Z,21.52
2022-10-31T02:40:35.854Z,26.23
2022-10-31T02:46:13.608Z,20.05
2022-10-31T02:51:17.430Z,22.42
2022-10-31T02:56:20.485Z,21.70
2022-10-31T03:01:28.611Z,22.88
2022-10-31T03:06:45.938Z,21.80
2022-10-31T03:11:59.358Z,24.00
2022-10-31T03:17:08.522Z,20.92
2022-10-31T03:22:23.739Z,21.63
2022-10-31T03:27:28.525Z,18.08
2022-10-31T03:32:37.478Z,21.52
2022-10-31T03:37:41.450Z,18.77
2022-10-31T03:42:55.169Z,20.42
2022-10-31T03:48:00.068Z,20.02
2022-10-31T03:53:09.717Z,22.55
2022-10-31T03:58:38.212Z,22.95
2022-10-31T04:03:42.005Z,18.42
2022-10-31T04:08:52.205Z,21.25
2022-10-31T04:13:56.617Z,20.38
2022-10-31T04:18:58.785Z,23.55
2022-10-31T04:24:01.920Z,25.35
2022-10-31T04:29:06.011Z,21.35
2022-10-31T04:34:08.377Z,25.23
2022-10-31T04:39:10.586Z,22.20
2022-10-31T04:44:17.699Z,20.67
2022-10-31T04:49:23.147Z,25.98
2022-10-31T04:54:25.362Z,24.27
2022-10-31T04:59:50.331Z,25.27
2022-10-31T05:04:52.566Z,23.65
2022-10-31T05:09:54.727Z,23.63
2022-10-31T05:14:56.779Z,23.00
2022-10-31T05:20:19.362Z,23.55
2022-10-31T05:25:53.761Z,25.50
2022-10-31T05:30:56.528Z,23.63
2022-10-31T05:35:58.745Z,26.75
2022-10-31T05:41:18.656Z,19.70
2022-10-31T05:46:22.884Z,28.95
2022-10-31T05:51:43.396Z,20.98
2022-10-31T05:56:45.831Z,28.08
2022-10-31T06:01:48.187Z,26.90
2022-10-31T06:07:05.971Z,23.23
2022-10-31T06:12:08.524Z,23.25
2022-10-31T06:17:29.029Z,23.33
2022-10-31T06:23:09.725Z,24.67
2022-10-31T06:28:11.982Z,26.23
2022-10-31T06:33:29.701Z,24.45
2022-10-31T06:38:34.219Z,29.15
2022-10-31T06:43:36.652Z,29.42
2022-10-31T06:49:01.546Z,30.92
2022-10-31T06:54:29.501Z,30.30
2022-10-31T06:59:31.762Z,28.63
2022-10-31T07:04:49.156Z,28.15
2022-10-31T07:09:53.238Z,26.40
2022-10-31T07:15:06.458Z,28.92
2022-10-31T07:20:09.356Z,29.02
2022-10-31T07:25:11.822Z,35.30
2022-10-31T07:30:32.263Z,28.60
2022-10-31T07:35:35.737Z,29.40
2022-10-31T07:40:38.405Z,26.55
2022-10-31T07:45:40.589Z,25.42
2022-10-31T07:51:01.383Z,34.00
2022-10-31T07:56:22.088Z,32.92
2022-10-31T08:01:24.279Z,32.58
2022-10-31T08:06:46.181Z,32.95
2022-10-31T08:12:03.713Z,32.75
2022-10-31T08:17:07.175Z,30.83
2022-10-31T08:22:18.494Z,26.95
2022-10-31T08:27:20.642Z,28.90
2022-10-31T08:32:23.557Z,30.13
2022-10-31T08:38:04.449Z,26.85
2022-10-31T08:43:17.407Z,26.67
2022-10-31T08:48:19.597Z,30.40
2022-10-31T08:53:23.519Z,21.52
2022-10-31T08:58:40.095Z,25.83
2022-10-31T09:03:43.069Z,25.98
2022-10-31T09:08:46.465Z,27.80
2022-10-31T09:13:48.496Z,27.35
2022-10-31T09:19:11.676Z,28.42
2022-10-31T09:24:13.960Z,34.13
2022-10-31T09:29:17.810Z,37.35
2022-10-31T09:34:20.890Z,31.50
2022-10-31T09:39:35.141Z,34.95
2022-10-31T09:45:11.210Z,36.35
2022-10-31T09:50:21.079Z,36.92
2022-10-31T09:55:35.987Z,34.20
2022-10-31T10:00:37.980Z,28.83
2022-10-31T10:05:51.733Z,40.45
2022-10-31T10:11:25.666Z,44.97
2022-10-31T10:17:11.776Z,37.75
2022-10-31T10:22:51.928Z,40.30
2022-10-31T10:28:30.712Z,43.83
2022-10-31T10:33:47.519Z,41.13
2022-10-31T10:38:59.276Z,45.42
2022-10-31T10:44:01.467Z,45.08
2022-10-31T10:49:20.450Z,44.85
2022-10-31T10:54:34.707Z,47.50
2022-10-31T10:59:36.766Z,45.78
2022-10-31T11:04:41.181Z,51.08
2022-10-31T11:09:43.266Z,56.17
2022-10-31T11:15:00.341Z,55.85
2022-10-31T11:20:24.679Z,51.80
2022-10-31T11:25:27.480Z,50.63
2022-10-31T11:30:30.662Z,54.50
2022-10-31T11:35:32.723Z,54.72
2022-10-31T11:40:34.753Z,46.83
2022-10-31T11:45:37.767Z,54.80
2022-10-31T11:50:42.500Z,49.13
2022-10-31T11:55:46.373Z,57.75
2022-10-31T12:00:54.183Z,54.83
2022-10-31T12:06:04.014Z,52.45
2022-10-31T12:11:38.374Z,51.38
2022-10-31T12:17:05.173Z,52.35
2022-10-31T12:22:11.784Z,58.20
2022-10-31T12:27:28.209Z,42.63
2022-10-31T12:32:39.748Z,50.55
2022-10-31T12:37:49.203Z,46.88
2022-10-31T12:43:14.359Z,52.72
2022-10-31T12:48:26.040Z,45.22
2022-10-31T12:54:01.048Z,49.75
2022-10-31T12:59:41.972Z,51.70
2022-10-31T13:04:57.705Z,42.97
2022-10-31T13:10:30.575Z,45.10
2022-10-31T13:15:42.050Z,43.70
2022-10-31T13:20:51.662Z,37.15
2022-10-31T13:25:59.724Z,38.75
2022-10-31T13:31:02.598Z,40.72
2022-10-31T13:36:29.267Z,34.30
2022-10-31T13:41:43.576Z,36.65
2022-10-31T13:46:45.916Z,44.58
2022-10-31T13:51:49.681Z,39.20
2022-10-31T13:56:52.811Z,39.13
2022-10-31T14:02:01.725Z,48.92
2022-10-31T14:07:14.835Z,35.20
2022-10-31T14:12:41.997Z,38.70
2022-10-31T14:17:50.831Z,42.20
2022-10-31T14:22:53.204Z,42.47
2022-10-31T14:27:55.574Z,34.75
2022-10-31T14:33:10.040Z,38.75
2022-10-31T14:38:23.222Z,33.30
2022-10-31T14:43:57.399Z,33.45
2022-10-31T14:49:17.346Z,33.22
2022-10-31T14:54:28.050Z,37.40
2022-10-31T14:59:33.674Z,29.98
2022-10-31T15:04:36.213Z,30.92
2022-10-31T15:09:38.872Z,24.33
2022-10-31T15:14:40.866Z,27.13
2022-10-31T15:19:43.617Z,30.75
2022-10-31T15:24:46.116Z,30.88
2022-10-31T15:29:50.483Z,20.52
2022-10-31T15:34:53.950Z,27.13
2022-10-31T15:39:55.927Z,22.70
2022-10-31T15:45:19.465Z,25.63
2022-10-31T15:50:45.927Z,21.85
2022-10-31T15:55:54.768Z,23.13
2022-10-31T16:01:02.880Z,21.35
2022-10-31T16:06:06.312Z,21.05
2022-10-31T16:11:08.421Z,22.35
2022-10-31T16:21:39.450Z,27.70
2022-10-31T16:26:41.753Z,25.20
2022-10-31T16:31:43.730Z,26.25
2022-10-31T16:36:46.056Z,26.45
2022-10-31T16:41:52.479Z,31.83
2022-10-31T16:47:14.428Z,21.40
2022-10-31T16:52:17.837Z,27.83
2022-10-31T16:57:27.245Z,25.70
2022-10-31T17:02:29.786Z,21.13
2022-10-31T17:07:31.875Z,27.08
2022-10-31T17:12:34.343Z,27.48
2022-10-31T17:17:36.467Z,20.73
2022-10-31T17:27:47.363Z,17.13
2022-10-31T17:32:50.509Z,21.02
2022-10-31T17:37:52.524Z,23.83
2022-10-31T17:42:56.870Z,22.50
2022-10-31T17:47:58.927Z,17.42
2022-10-31T17:53:01.855Z,21.95
2022-10-31T17:58:04.482Z,23.40
2022-10-31T18:03:07.026Z,21.25
2022-10-31T18:08:09.095Z,23.73
2022-10-31T18:13:11.134Z,21.00
2022-10-31T18:18:13.148Z,23.17
2022-10-31T18:23:15.202Z,23.00
2022-10-31T18:28:17.250Z,22.95
2022-10-31T18:33:19.660Z,18.95
2022-10-31T18:38:21.857Z,18.33
2022-10-31T18:43:23.837Z,19.75
2022-10-31T18:48:28.286Z,23.23
2022-10-31T18:53:30.961Z,14.95
2022-10-31T18:58:33.059Z,16.33
2022-10-31T19:03:35.684Z,15.20
2022-10-31T19:08:39.160Z,17.80
2022-10-31T19:13:43.244Z,18.92
2022-10-31T19:18:46.674Z,17.23
2022-10-31T19:23:49.010Z,17.70
2022-10-31T19:28:51.087Z,15.02
2022-10-31T19:33:53.204Z,21.70
2022-10-31T19:38:55.434Z,19.42
2022-10-31T19:43:59.836Z,17.13
2022-10-31T19:49:02.336Z,16.52
2022-10-31T19:54:05.381Z,24.00
2022-10-31T19:59:07.996Z,20.35
2022-10-31T20:04:10.543Z,20.70
2022-10-31T20:09:13.809Z,19.38
2022-10-31T20:14:17.648Z,17.42
2022-10-31T20:19:19.794Z,17.67
2022-10-31T20:24:22.183Z,18.65
2022-10-31T20:29:24.218Z,24.85
2022-10-31T20:34:26.206Z,20.25
2022-10-31T20:39:28.245Z,23.77
2022-10-31T20:44:30.653Z,17.60
2022-10-31T20:49:32.750Z,19.08
2022-10-31T20:54:34.704Z,22.15
2022-10-31T20:59:36.899Z,15.68
2022-10-31T21:04:39.063Z,17.15
2022-10-31T21:09:41.196Z,17.65
2022-10-31T21:14:43.265Z,13.13
2022-10-31T21:19:45.325Z,16.33
2022-10-31T21:24:47.346Z,20.65
2022-10-31T21:29:49.392Z,18.40
2022-10-31T21:34:51.460Z,16.08
2022-10-31T21:39:53.460Z,14.82
2022-10-31T21:44:55.551Z,17.45
2022-10-31T21:49:57.663Z,18.13
2022-10-31T21:54:59.676Z,16.83
2022-10-31T22:00:04.149Z,21.17
2022-10-31T22:05:07.321Z,12.90
2022-10-31T22:10:09.610Z,13.55
2022-10-31T22:15:11.588Z,15.38
2022-10-31T22:20:13.670Z,15.52
2022-10-31T22:25:15.693Z,25.25
2022-10-31T22:30:17.919Z,13.52
2022-10-31T22:35:19.991Z,15.70
2022-10-31T22:40:21.978Z,17.23
2022-10-31T22:45:24.162Z,19.52
2022-10-31T22:50:26.214Z,14.88
2022-10-31T22:55:28.291Z,20.60
2022-10-31T23:00:30.277Z,17.95
2022-10-31T23:05:32.435Z,14.77
2022-10-31T23:10:34.740Z,17.40
2022-10-31T23:15:37.708Z,17.85
2022-10-31T23:26:03.366Z,23.17
2022-10-31T23:31:05.326Z,15.27
2022-10-31T23:36:07.651Z,15.13
2022-10-31T23:41:09.786Z,19.00
2022-10-31T23:46:11.804Z,14.65
2022-10-31T23:51:14.710Z,14.00
2022-10-31T23:56:16.759Z,14.95
